createdAt,value
2018-05-09T00:02:03.309Z,3.03
2018-05-09T00:04:33.679Z,2.60
2018-05-09T00:07:04.328Z,2.90
2018-05-09T00:09:34.396Z,2.90
2018-05-09T00:12:05.817Z,2.70
2018-05-09T00:14:36.171Z,2.80
2018-05-09T00:17:06.271Z,2.60
2018-05-09T00:19:36.646Z,3.20
2018-05-09T00:22:06.731Z,2.80
2018-05-09T00:24:37.225Z,2.80
2018-05-09T00:27:08.455Z,2.83
2018-05-09T00:29:39.497Z,3.23
2018-05-09T00:32:09.890Z,3.00
2018-05-09T00:34:40.048Z,3.20
2018-05-09T00:37:10.396Z,3.23
2018-05-09T00:39:40.796Z,3.60
2018-05-09T00:42:10.964Z,3.13
2018-05-09T00:44:41.085Z,3.20
2018-05-09T00:47:11.511Z,3.03
2018-05-09T00:49:41.816Z,3.20
2018-05-09T00:52:11.980Z,3.20
2018-05-09T00:54:42.059Z,3.00
2018-05-09T00:57:12.679Z,2.93
2018-05-09T00:59:42.983Z,3.03
2018-05-09T01:02:14.468Z,3.03
2018-05-09T01:04:44.856Z,3.40
2018-05-09T01:07:15.599Z,3.50
2018-05-09T01:09:46.626Z,3.30
2018-05-09T01:12:17.499Z,3.40
2018-05-09T01:14:47.977Z,3.20
2018-05-09T01:17:18.103Z,3.30
2018-05-09T01:19:48.160Z,3.30
2018-05-09T01:22:18.579Z,3.17
2018-05-09T01:24:48.751Z,3.40
2018-05-09T01:27:18.928Z,2.83
2018-05-09T01:29:49.311Z,3.40
2018-05-09T01:32:19.659Z,3.53
2018-05-09T01:34:50.527Z,2.93
2018-05-09T01:37:20.863Z,3.30
2018-05-09T01:39:50.935Z,3.20
2018-05-09T01:42:22.123Z,3.53
2018-05-09T01:44:52.161Z,3.70
2018-05-09T01:47:22.213Z,3.40
2018-05-09T01:49:54.047Z,3.27
2018-05-09T01:52:24.311Z,3.10
2018-05-09T01:54:54.391Z,3.30
2018-05-09T01:57:25.515Z,3.53
2018-05-09T01:59:55.572Z,3.20
2018-05-09T02:02:26.712Z,3.50
2018-05-09T02:04:57.672Z,3.20
2018-05-09T02:07:27.765Z,3.60
2018-05-09T02:09:58.107Z,3.27
2018-05-09T02:12:28.927Z,3.37
2018-05-09T02:14:59.944Z,3.70
2018-05-09T02:17:30.565Z,3.60
2018-05-09T02:20:00.751Z,3.50
2018-05-09T02:22:30.848Z,3.87
2018-05-09T02:25:01.760Z,3.70
2018-05-09T02:27:32.429Z,4.10
2018-05-09T02:30:02.503Z,3.80
2018-05-09T02:32:32.816Z,4.30
2018-05-09T02:35:05.099Z,3.73
2018-05-09T02:37:35.425Z,3.60
2018-05-09T02:40:05.727Z,4.07
2018-05-09T02:42:35.917Z,3.67
2018-05-09T02:45:06.263Z,4.00
2018-05-09T02:47:37.985Z,3.57
2018-05-09T02:50:08.842Z,3.90
2018-05-09T02:52:38.922Z,3.57
2018-05-09T02:55:09.016Z,3.70
2018-05-09T02:57:39.397Z,3.90
2018-05-09T03:00:11.547Z,3.77
2018-05-09T03:02:41.854Z,4.57
2018-05-09T03:05:12.136Z,4.10
2018-05-09T03:07:42.753Z,3.87
2018-05-09T03:10:13.460Z,4.23
2018-05-09T03:12:43.819Z,4.00
2018-05-09T03:15:13.867Z,3.80
2018-05-09T03:17:45.195Z,4.30
2018-05-09T03:20:15.387Z,3.97
2018-05-09T03:22:46.289Z,4.00
2018-05-09T03:25:16.647Z,4.23
2018-05-09T03:27:47.972Z,4.20
2018-05-09T03:30:18.083Z,3.73
2018-05-09T03:32:48.292Z,4.40
2018-05-09T03:35:18.939Z,4.20
2018-05-09T03:37:49.611Z,4.40
2018-05-09T03:40:19.959Z,3.93
2018-05-09T03:42:50.349Z,4.03
2018-05-09T03:45:20.652Z,3.60
2018-05-09T03:47:51.498Z,4.00
2018-05-09T03:50:22.628Z,3.80
2018-05-09T03:52:52.967Z,3.90
2018-05-09T03:55:23.015Z,4.13
2018-05-09T03:57:53.682Z,4.30
2018-05-09T04:00:27.525Z,4.07
2018-05-09T04:05:11.387Z,4.47
2018-05-09T04:09:55.472Z,3.40
2018-05-09T04:12:25.656Z,4.03
2018-05-09T04:14:56.159Z,3.93
2018-05-09T04:17:27.061Z,4.00
2018-05-09T04:19:57.419Z,3.83
2018-05-09T04:22:28.228Z,4.20
2018-05-09T04:24:59.387Z,4.30
2018-05-09T04:27:29.691Z,3.83
2018-05-09T04:30:00.016Z,4.03
2018-05-09T04:32:30.143Z,4.00
2018-05-09T04:35:00.670Z,4.10
2018-05-09T04:37:31.216Z,4.00
2018-05-09T04:40:01.357Z,4.00
2018-05-09T04:42:31.623Z,4.20
2018-05-09T04:45:02.363Z,4.23
2018-05-09T04:47:32.423Z,3.80
2018-05-09T04:50:06.339Z,4.37
2018-05-09T04:52:36.719Z,4.10
2018-05-09T04:55:08.320Z,3.93
2018-05-09T04:57:38.475Z,3.83
2018-05-09T05:00:08.783Z,4.27
2018-05-09T05:02:39.208Z,4.00
2018-05-09T05:05:09.772Z,3.73
2018-05-09T05:07:41.835Z,3.77
2018-05-09T05:10:14.055Z,3.90
2018-05-09T05:12:45.916Z,4.20
2018-05-09T05:15:16.197Z,3.90
2018-05-09T05:17:50.661Z,9.10
2018-05-09T05:20:21.162Z,5.33
2018-05-09T05:22:52.079Z,4.03
2018-05-09T05:25:27.868Z,4.50
2018-05-09T05:27:59.784Z,4.20
2018-05-09T05:30:30.629Z,3.80
2018-05-09T05:33:07.835Z,4.00
2018-05-09T05:35:38.835Z,4.27
2018-05-09T05:38:09.109Z,4.30
2018-05-09T05:40:39.600Z,4.20
2018-05-09T05:43:15.052Z,4.13
2018-05-09T05:45:46.603Z,4.20
2018-05-09T05:48:16.787Z,4.00
2018-05-09T05:50:47.332Z,4.00
2018-05-09T05:53:18.916Z,3.93
2018-05-09T05:55:49.002Z,3.70
2018-05-09T05:58:20.191Z,3.63
2018-05-09T06:01:00.679Z,4.10
2018-05-09T06:03:31.235Z,3.90
2018-05-09T06:06:02.228Z,4.20
2018-05-09T06:08:32.684Z,4.00
2018-05-09T06:11:17.211Z,3.87
2018-05-09T06:13:47.600Z,4.30
2018-05-09T06:16:18.551Z,4.70
2018-05-09T06:18:49.730Z,4.33
2018-05-09T06:21:19.778Z,4.07
2018-05-09T06:23:49.914Z,3.83
2018-05-09T06:26:24.949Z,3.80
2018-05-09T06:28:56.707Z,3.67
2018-05-09T06:31:27.589Z,3.83
2018-05-09T06:33:57.988Z,3.80
2018-05-09T06:36:30.094Z,4.30
2018-05-09T06:39:01.780Z,4.37
2018-05-09T06:41:32.612Z,3.53
2018-05-09T06:44:02.717Z,4.30
2018-05-09T06:46:32.960Z,3.60
2018-05-09T06:49:09.399Z,3.63
2018-05-09T06:51:46.223Z,4.00
2018-05-09T06:54:16.415Z,4.00
2018-05-09T06:56:47.841Z,3.57
2018-05-09T06:59:22.395Z,4.40
2018-05-09T07:01:53.103Z,4.33
2018-05-09T07:04:27.148Z,3.67
2018-05-09T07:06:58.284Z,3.73
2018-05-09T07:09:31.802Z,3.90
2018-05-09T07:12:02.863Z,3.53
2018-05-09T07:14:34.549Z,3.97
2018-05-09T07:17:04.624Z,3.73
2018-05-09T07:19:34.953Z,3.60
2018-05-09T07:22:06.139Z,3.60
2018-05-09T07:24:36.625Z,3.77
2018-05-09T07:27:06.806Z,3.80
2018-05-09T07:29:36.865Z,4.50
2018-05-09T07:32:07.394Z,3.80
2018-05-09T07:34:37.772Z,3.77
2018-05-09T07:37:09.628Z,3.80
2018-05-09T07:39:40.491Z,3.30
2018-05-09T07:42:11.829Z,3.37
2018-05-09T07:44:42.356Z,3.33
2018-05-09T07:47:12.607Z,3.10
2018-05-09T07:49:42.708Z,3.67
2018-05-09T07:52:12.929Z,3.57
2018-05-09T07:54:43.280Z,3.27
2018-05-09T07:57:14.372Z,4.10
2018-05-09T07:59:45.968Z,3.17
2018-05-09T08:02:17.187Z,3.53
2018-05-09T08:04:48.068Z,3.30
2018-05-09T08:07:18.491Z,3.63
2018-05-09T08:09:48.591Z,3.40
2018-05-09T08:12:18.798Z,3.20
2018-05-09T08:14:49.104Z,3.50
2018-05-09T08:17:19.237Z,4.20
2018-05-09T08:19:50.335Z,3.50
2018-05-09T08:22:20.417Z,4.30
2018-05-09T08:24:50.884Z,3.80
2018-05-09T08:27:21.773Z,3.70
2018-05-09T08:29:52.571Z,3.73
2018-05-09T08:32:22.623Z,3.50
2018-05-09T08:34:53.505Z,3.80
2018-05-09T08:37:23.606Z,4.20
2018-05-09T08:39:53.975Z,3.70
2018-05-09T08:42:24.131Z,4.10
2018-05-09T08:44:54.943Z,3.60
2018-05-09T08:47:25.559Z,3.80
2018-05-09T08:49:55.899Z,3.73
2018-05-09T08:52:27.425Z,4.23
2018-05-09T08:54:57.520Z,4.00
2018-05-09T08:57:28.052Z,3.90
2018-05-09T08:59:58.211Z,4.00
2018-05-09T09:02:28.375Z,3.50
2018-05-09T09:04:59.072Z,4.13
2018-05-09T09:07:30.094Z,3.57
2018-05-09T09:10:00.213Z,3.73
2018-05-09T09:12:30.912Z,4.03
2018-05-09T09:15:01.200Z,3.97
2018-05-09T09:17:32.068Z,3.67
2018-05-09T09:20:02.659Z,3.83
2018-05-09T09:22:33.492Z,3.70
2018-05-09T09:25:04.355Z,3.97
2018-05-09T09:27:35.488Z,3.67
2018-05-09T09:30:07.883Z,3.77
2018-05-09T09:32:39.275Z,3.60
2018-05-09T09:35:10.004Z,3.50
2018-05-09T09:37:40.077Z,3.53
2018-05-09T09:40:10.537Z,3.63
2018-05-09T09:42:40.961Z,3.83
2018-05-09T09:45:11.124Z,3.80
2018-05-09T09:47:41.173Z,3.47
2018-05-09T09:50:11.380Z,3.60
2018-05-09T09:52:42.851Z,3.33
2018-05-09T09:55:13.179Z,3.43
2018-05-09T09:57:43.594Z,3.33
2018-05-09T10:00:17.769Z,3.53
2018-05-09T10:02:48.160Z,3.23
2018-05-09T10:05:18.244Z,3.30
2018-05-09T10:07:49.052Z,3.70
2018-05-09T10:10:19.382Z,3.63
2018-05-09T10:12:49.463Z,3.50
2018-05-09T10:15:19.716Z,3.20
2018-05-09T10:17:50.580Z,3.20
2018-05-09T10:20:21.387Z,3.63
2018-05-09T10:22:51.420Z,3.50
2018-05-09T10:25:21.880Z,3.37
2018-05-09T10:27:52.022Z,3.20
2018-05-09T10:30:22.090Z,3.50
2018-05-09T10:32:52.983Z,3.37
2018-05-09T10:35:24.279Z,3.87
2018-05-09T10:37:55.130Z,3.50
2018-05-09T10:40:25.271Z,4.13
2018-05-09T10:42:55.311Z,3.53
2018-05-09T10:45:25.659Z,3.17
2018-05-09T10:47:55.711Z,3.70
2018-05-09T10:50:26.187Z,3.70
2018-05-09T10:52:56.240Z,3.57
2018-05-09T10:55:26.591Z,3.47
2018-05-09T10:57:56.921Z,3.53
2018-05-09T11:00:26.956Z,4.10
2018-05-09T11:02:57.417Z,4.00
2018-05-09T11:05:28.315Z,3.77
2018-05-09T11:07:58.468Z,3.37
2018-05-09T11:10:28.613Z,3.43
2018-05-09T11:12:59.044Z,3.57
2018-05-09T11:15:29.213Z,3.63
2018-05-09T11:17:59.361Z,3.97
2018-05-09T11:20:30.519Z,4.07
2018-05-09T11:23:01.400Z,13.93
2018-05-09T11:25:31.748Z,3.83
2018-05-09T11:28:01.828Z,3.70
2018-05-09T11:30:31.960Z,3.30
2018-05-09T11:33:02.004Z,3.37
2018-05-09T11:35:32.360Z,3.67
2018-05-09T11:38:03.223Z,3.17
2018-05-09T11:40:33.367Z,3.60
2018-05-09T11:43:03.423Z,3.57
2018-05-09T11:45:33.519Z,3.53
2018-05-09T11:48:03.606Z,3.20
2018-05-09T11:50:34.016Z,3.40
2018-05-09T11:53:04.091Z,3.40
2018-05-09T11:55:34.425Z,2.93
2018-05-09T11:58:04.528Z,3.90
2018-05-09T12:00:34.596Z,3.23
2018-05-09T12:03:04.983Z,3.50
2018-05-09T12:05:35.359Z,3.10
2018-05-09T12:08:06.225Z,3.10
2018-05-09T12:10:36.364Z,3.37
2018-05-09T12:13:06.440Z,3.93
2018-05-09T12:15:37.119Z,3.23
2018-05-09T12:18:08.441Z,3.50
2018-05-09T12:20:38.609Z,3.20
2018-05-09T12:23:09.569Z,3.03
2018-05-09T12:25:39.684Z,3.40
2018-05-09T12:28:11.144Z,3.30
2018-05-09T12:30:41.274Z,3.10
2018-05-09T12:33:12.380Z,3.43
2018-05-09T12:35:43.547Z,3.33
2018-05-09T12:38:13.615Z,3.70
2018-05-09T12:40:43.726Z,3.37
2018-05-09T12:43:14.094Z,3.10
2018-05-09T12:45:45.228Z,3.27
2018-05-09T12:48:16.076Z,3.53
2018-05-09T12:50:47.229Z,3.47
2018-05-09T12:53:17.341Z,3.40
2018-05-09T12:55:48.492Z,3.13
2018-05-09T12:58:18.660Z,3.93
2018-05-09T13:00:48.743Z,3.03
2018-05-09T13:03:19.188Z,3.37
2018-05-09T13:05:49.296Z,3.63
2018-05-09T13:08:19.727Z,3.40
2018-05-09T13:10:50.085Z,3.53
2018-05-09T13:13:20.249Z,3.50
2018-05-09T13:15:50.378Z,3.40
2018-05-09T13:18:20.466Z,3.30
2018-05-09T13:20:50.953Z,3.70
2018-05-09T13:23:21.047Z,3.80
2018-05-09T13:25:51.230Z,3.37
2018-05-09T13:28:21.332Z,3.33
2018-05-09T13:30:51.660Z,4.10
2018-05-09T13:33:21.739Z,3.57
2018-05-09T13:35:51.783Z,3.43
2018-05-09T13:38:23.153Z,3.67
2018-05-09T13:40:53.271Z,3.77
2018-05-09T13:43:23.361Z,3.43
2018-05-09T13:45:53.481Z,3.23
2018-05-09T13:48:23.772Z,3.43
2018-05-09T13:50:54.120Z,3.73
2018-05-09T13:53:24.244Z,3.43
2018-05-09T13:55:54.577Z,3.67
2018-05-09T13:58:24.716Z,3.50
2018-05-09T14:00:54.756Z,3.30
2018-05-09T14:03:25.180Z,3.13
2018-05-09T14:05:56.320Z,3.27
2018-05-09T14:08:26.452Z,3.03
2018-05-09T14:10:57.971Z,3.10
2018-05-09T14:13:28.483Z,3.67
2018-05-09T14:15:58.595Z,3.47
2018-05-09T14:18:29.243Z,3.47
2018-05-09T14:20:59.600Z,3.10
2018-05-09T14:23:30.438Z,2.90
2018-05-09T14:26:00.515Z,3.27
2018-05-09T14:28:31.984Z,3.13
2018-05-09T14:31:02.370Z,3.40
2018-05-09T14:33:32.760Z,3.27
2018-05-09T14:36:03.942Z,3.20
2018-05-09T14:38:34.364Z,3.30
2018-05-09T14:41:04.544Z,3.30
2018-05-09T14:43:34.915Z,3.30
2018-05-09T14:46:05.072Z,3.60
2018-05-09T14:48:35.956Z,3.63
2018-05-09T14:51:07.157Z,3.37
2018-05-09T14:53:37.537Z,3.47
2018-05-09T14:56:07.675Z,3.37
2018-05-09T14:58:38.107Z,3.63
2018-05-09T15:01:08.472Z,3.17
2018-05-09T15:03:38.624Z,3.50
2018-05-09T15:06:09.131Z,3.83
2018-05-09T15:08:39.275Z,3.37
2018-05-09T15:11:09.524Z,4.10
2018-05-09T15:13:39.872Z,3.30
2018-05-09T15:16:10.848Z,3.33
2018-05-09T15:18:40.952Z,3.20
2018-05-09T15:21:11.447Z,3.80
2018-05-09T15:23:41.544Z,3.20
2018-05-09T15:26:11.712Z,3.60
2018-05-09T15:28:42.850Z,3.33
2018-05-09T15:31:12.963Z,3.10
2018-05-09T15:33:43.041Z,3.20
2018-05-09T15:36:13.383Z,3.40
2018-05-09T15:38:43.490Z,3.10
2018-05-09T15:41:16.224Z,2.85
2018-05-09T15:43:47.355Z,3.62
2018-05-09T15:46:18.318Z,3.08
2018-05-09T15:48:52.292Z,3.20
2018-05-09T15:51:22.664Z,3.40
2018-05-09T15:53:53.511Z,3.50
2018-05-09T15:56:23.616Z,3.40
2018-05-09T15:58:53.998Z,3.43
2018-05-09T16:01:24.116Z,3.40
2018-05-09T16:03:54.596Z,3.63
2018-05-09T16:06:24.912Z,3.37
2018-05-09T16:08:55.363Z,3.23
2018-05-09T16:11:25.709Z,3.67
2018-05-09T16:13:56.075Z,3.27
2018-05-09T16:16:27.365Z,3.37
2018-05-09T16:18:57.462Z,3.60
2018-05-09T16:21:27.860Z,3.33
2018-05-09T16:23:57.939Z,3.43
2018-05-09T16:26:28.123Z,3.40
2018-05-09T16:28:59.517Z,3.13
2018-05-09T16:31:30.307Z,3.20
2018-05-09T16:34:01.182Z,3.27
2018-05-09T16:36:31.661Z,3.37
2018-05-09T16:39:02.667Z,3.40
2018-05-09T16:41:33.064Z,3.30
2018-05-09T16:44:03.396Z,3.50
2018-05-09T16:46:33.661Z,3.47
2018-05-09T16:49:04.089Z,3.30
2018-05-09T16:51:34.500Z,3.50
2018-05-09T16:54:05.032Z,3.00
2018-05-09T16:56:35.101Z,3.43
2018-05-09T16:59:05.188Z,3.50
2018-05-09T17:01:35.937Z,3.07
2018-05-09T17:04:06.031Z,3.20
2018-05-09T17:06:36.269Z,2.97
2018-05-09T17:09:08.264Z,3.30
2018-05-09T17:11:39.587Z,3.13
2018-05-09T17:14:10.056Z,3.10
2018-05-09T17:16:41.250Z,3.10
2018-05-09T17:19:11.687Z,3.37
2018-05-09T17:21:56.855Z,3.67
2018-05-09T17:24:30.000Z,3.63
2018-05-09T17:27:01.996Z,3.20
2018-05-09T17:29:33.000Z,3.30
2018-05-09T17:32:03.963Z,3.20
2018-05-09T17:34:34.929Z,3.77
2018-05-09T17:37:05.137Z,3.73
2018-05-09T17:39:36.090Z,3.10
2018-05-09T17:42:06.664Z,3.53
2018-05-09T17:44:37.739Z,3.57
2018-05-09T17:47:07.931Z,3.23
2018-05-09T17:49:38.397Z,3.00
2018-05-09T17:52:08.573Z,3.30
2018-05-09T17:54:38.787Z,3.40
2018-05-09T17:57:09.191Z,5.00
2018-05-09T17:59:40.118Z,12.40
2018-05-09T18:02:11.103Z,5.23
2018-05-09T18:04:41.624Z,24.23
2018-05-09T18:07:11.897Z,33.70
2018-05-09T18:09:42.093Z,16.87
2018-05-09T18:12:12.546Z,3.70
2018-05-09T18:14:42.748Z,18.87
2018-05-09T18:17:13.221Z,17.50
2018-05-09T18:19:43.644Z,14.63
2018-05-09T18:22:14.512Z,7.93
2018-05-09T18:24:45.678Z,16.23
2018-05-09T18:27:16.084Z,4.93
2018-05-09T18:29:46.935Z,5.37
2018-05-09T18:32:17.017Z,5.30
2018-05-09T18:34:47.113Z,4.30
2018-05-09T18:37:18.104Z,4.37
2018-05-09T18:39:49.031Z,3.60
2018-05-09T18:42:20.198Z,4.10
2018-05-09T18:44:50.583Z,4.07
2018-05-09T18:47:21.431Z,3.90
2018-05-09T18:49:51.529Z,3.60
2018-05-09T18:52:22.651Z,3.67
2018-05-09T18:54:53.616Z,3.13
2018-05-09T18:57:23.787Z,3.07
2018-05-09T18:59:54.303Z,2.87
2018-05-09T19:02:24.408Z,3.23
2018-05-09T19:04:54.517Z,3.17
2018-05-09T19:07:24.685Z,3.80
2018-05-09T19:09:55.161Z,3.13
2018-05-09T19:12:25.328Z,3.00
2018-05-09T19:14:55.445Z,3.50
2018-05-09T19:17:25.617Z,3.50
2018-05-09T19:19:56.145Z,3.30
2018-05-09T19:22:26.370Z,3.53
2018-05-09T19:24:56.425Z,4.20
2018-05-09T19:27:26.577Z,3.80
2018-05-09T19:29:57.056Z,4.00
2018-05-09T19:32:27.265Z,4.13
2018-05-09T19:34:57.415Z,3.60
2018-05-09T19:37:27.775Z,4.00
2018-05-09T19:39:59.009Z,3.93
2018-05-09T19:42:30.250Z,3.90
2018-05-09T19:45:00.462Z,4.30
2018-05-09T19:47:30.829Z,4.00
2018-05-09T19:50:01.225Z,5.37
2018-05-09T19:52:31.313Z,6.10
2018-05-09T19:55:02.819Z,3.40
2018-05-09T19:57:32.950Z,3.97
2018-05-09T20:00:03.481Z,4.07
2018-05-09T20:02:34.046Z,3.57
2018-05-09T20:05:05.065Z,4.37
2018-05-09T20:07:35.202Z,4.30
2018-05-09T20:10:06.477Z,4.47
2018-05-09T20:12:37.315Z,4.30
2018-05-09T20:15:07.478Z,4.27
2018-05-09T20:17:37.620Z,4.33
2018-05-09T20:20:08.888Z,3.87
2018-05-09T20:22:39.149Z,4.27
2018-05-09T20:25:10.075Z,4.20
2018-05-09T20:27:40.502Z,3.93
2018-05-09T20:30:14.706Z,4.07
2018-05-09T20:32:44.883Z,4.03
2018-05-09T20:35:16.089Z,3.83
2018-05-09T20:37:46.182Z,4.40
2018-05-09T20:40:16.235Z,3.60
2018-05-09T20:42:46.755Z,3.80
2018-05-09T20:45:16.974Z,4.07
2018-05-09T20:47:47.073Z,4.23
2018-05-09T20:50:17.479Z,4.00
2018-05-09T20:52:47.555Z,4.07
2018-05-09T20:55:26.654Z,4.60
2018-05-09T20:57:56.852Z,4.50
2018-05-09T21:00:26.933Z,4.17
2018-05-09T21:02:57.863Z,4.20
2018-05-09T21:05:29.086Z,3.93
2018-05-09T21:07:59.470Z,3.80
2018-05-09T21:10:29.625Z,3.80
2018-05-09T21:12:59.866Z,3.97
2018-05-09T21:15:30.476Z,3.90
2018-05-09T21:18:00.678Z,4.20
2018-05-09T21:20:30.861Z,4.23
2018-05-09T21:23:01.962Z,4.00
2018-05-09T21:25:32.273Z,3.70
2018-05-09T21:28:02.604Z,3.37
2018-05-09T21:30:33.060Z,3.77
2018-05-09T21:33:03.157Z,3.90
2018-05-09T21:35:33.500Z,4.00
2018-05-09T21:38:03.858Z,3.90
2018-05-09T21:40:34.670Z,3.67
2018-05-09T21:43:05.020Z,3.77
2018-05-09T21:45:35.088Z,3.70
2018-05-09T21:48:06.229Z,4.23
2018-05-09T21:50:36.564Z,3.63
2018-05-09T21:53:06.666Z,4.00
2018-05-09T21:55:37.149Z,3.30
2018-05-09T21:58:08.306Z,3.40
2018-05-09T22:00:38.395Z,3.70
2018-05-09T22:03:08.449Z,3.33
2018-05-09T22:05:38.756Z,5.10
2018-05-09T22:08:09.671Z,4.43
2018-05-09T22:10:39.996Z,3.60
2018-05-09T22:13:10.271Z,3.80
2018-05-09T22:15:40.672Z,3.40
2018-05-09T22:18:11.050Z,3.50
2018-05-09T22:20:41.889Z,3.40
2018-05-09T22:23:12.988Z,3.27
2018-05-09T22:25:43.370Z,3.50
2018-05-09T22:28:13.488Z,3.37
2018-05-09T22:30:43.547Z,4.00
2018-05-09T22:33:13.855Z,4.03
2018-05-09T22:35:44.219Z,3.30
2018-05-09T22:38:14.268Z,3.67
2018-05-09T22:40:44.625Z,3.60
2018-05-09T22:43:15.510Z,3.30
2018-05-09T22:45:46.386Z,3.67
2018-05-09T22:48:16.467Z,3.23
2018-05-09T22:50:46.669Z,3.57
2018-05-09T22:53:16.992Z,3.43
2018-05-09T22:55:47.091Z,3.43
2018-05-09T22:58:17.448Z,3.73
2018-05-09T23:00:47.913Z,3.33
2018-05-09T23:03:18.368Z,3.33
2018-05-09T23:05:48.416Z,3.40
2018-05-09T23:08:18.736Z,3.33
2018-05-09T23:10:49.171Z,3.40
2018-05-09T23:13:20.651Z,3.20
2018-05-09T23:15:50.772Z,3.07
2018-05-09T23:18:20.840Z,3.43
2018-05-09T23:20:51.616Z,3.47
2018-05-09T23:23:21.660Z,3.53
2018-05-09T23:25:51.831Z,3.60
2018-05-09T23:28:22.370Z,3.20
2018-05-09T23:30:53.057Z,3.60
2018-05-09T23:33:23.165Z,3.40
2018-05-09T23:35:53.536Z,3.60
2018-05-09T23:38:23.675Z,3.40
2018-05-09T23:40:54.496Z,3.70
2018-05-09T23:43:24.992Z,3.40
2018-05-09T23:45:55.177Z,3.47
2018-05-09T23:48:25.592Z,4.17
2018-05-09T23:50:56.378Z,3.27
2018-05-09T23:53:26.830Z,3.63
2018-05-09T23:55:58.050Z,3.37
2018-05-09T23:58:28.120Z,3.60
